sensor_id;sensor_type;location;lat;lon;timestamp;temperature;humidity
70820;DHT22;58439;51.046;13.692;2022-07-19T00:01:22;19.40;41.70
70820;DHT22;58439;51.046;13.692;2022-07-19T00:03:50;19.40;41.50
70820;DHT22;58439;51.046;13.692;2022-07-19T00:06:17;19.30;41.70
70820;DHT22;58439;51.046;13.692;2022-07-19T00:08:44;19.30;42.30
70820;DHT22;58439;51.046;13.692;2022-07-19T00:11:11;19.20;42.30
70820;DHT22;58439;51.046;13.692;2022-07-19T00:13:38;19.10;42.60
70820;DHT22;58439;51.046;13.692;2022-07-19T00:16:05;19.00;42.80
70820;DHT22;58439;51.046;13.692;2022-07-19T00:18:35;19.00;43.10
70820;DHT22;58439;51.046;13.692;2022-07-19T00:21:03;19.00;43.50
70820;DHT22;58439;51.046;13.692;2022-07-19T00:23:33;19.00;43.40
70820;DHT22;58439;51.046;13.692;2022-07-19T00:26:01;18.90;43.30
70820;DHT22;58439;51.046;13.692;2022-07-19T00:28:29;19.00;43.50
70820;DHT22;58439;51.046;13.692;2022-07-19T00:30:56;18.90;43.60
70820;DHT22;58439;51.046;13.692;2022-07-19T00:33:24;18.90;43.70
70820;DHT22;58439;51.046;13.692;2022-07-19T00:35:59;18.80;43.80
70820;DHT22;58439;51.046;13.692;2022-07-19T00:38:26;18.80;43.80
70820;DHT22;58439;51.046;13.692;2022-07-19T00:40:54;18.80;43.80
70820;DHT22;58439;51.046;13.692;2022-07-19T00:43:21;18.80;43.80
70820;DHT22;58439;51.046;13.692;2022-07-19T00:45:48;18.80;43.90
70820;DHT22;58439;51.046;13.692;2022-07-19T00:48:17;18.80;43.60
70820;DHT22;58439;51.046;13.692;2022-07-19T00:50:44;18.80;43.70
70820;DHT22;58439;51.046;13.692;2022-07-19T00:53:13;18.80;43.70
70820;DHT22;58439;51.046;13.692;2022-07-19T00:55:41;18.70;43.90
70820;DHT22;58439;51.046;13.692;2022-07-19T00:58:13;18.70;43.90
70820;DHT22;58439;51.046;13.692;2022-07-19T01:00:43;18.70;43.90
70820;DHT22;58439;51.046;13.692;2022-07-19T01:03:12;18.60;44.00
70820;DHT22;58439;51.046;13.692;2022-07-19T01:05:45;18.60;44.00
70820;DHT22;58439;51.046;13.692;2022-07-19T01:08:19;18.60;44.00
70820;DHT22;58439;51.046;13.692;2022-07-19T01:10:47;18.60;44.00
70820;DHT22;58439;51.046;13.692;2022-07-19T01:13:17;18.50;44.10
70820;DHT22;58439;51.046;13.692;2022-07-19T01:15:44;18.50;44.30
70820;DHT22;58439;51.046;13.692;2022-07-19T01:18:14;18.50;44.70
70820;DHT22;58439;51.046;13.692;2022-07-19T01:20:46;18.40;44.70
70820;DHT22;58439;51.046;13.692;2022-07-19T01:23:14;18.40;44.70
70820;DHT22;58439;51.046;13.692;2022-07-19T01:25:44;18.40;44.80
70820;DHT22;58439;51.046;13.692;2022-07-19T01:28:12;18.40;44.70
70820;DHT22;58439;51.046;13.692;2022-07-19T01:30:40;18.40;44.70
70820;DHT22;58439;51.046;13.692;2022-07-19T01:33:07;18.40;44.90
70820;DHT22;58439;51.046;13.692;2022-07-19T01:35:36;18.40;44.90
70820;DHT22;58439;51.046;13.692;2022-07-19T01:38:03;18.40;45.00
70820;DHT22;58439;51.046;13.692;2022-07-19T01:40:33;18.40;45.00
70820;DHT22;58439;51.046;13.692;2022-07-19T01:43:00;18.40;45.00
70820;DHT22;58439;51.046;13.692;2022-07-19T01:45:28;18.40;45.20
70820;DHT22;58439;51.046;13.692;2022-07-19T01:47:55;18.30;45.20
70820;DHT22;58439;51.046;13.692;2022-07-19T01:50:22;18.30;45.40
70820;DHT22;58439;51.046;13.692;2022-07-19T01:52:50;18.30;45.40
70820;DHT22;58439;51.046;13.692;2022-07-19T01:55:19;18.30;45.80
70820;DHT22;58439;51.046;13.692;2022-07-19T01:57:50;18.30;45.70
70820;DHT22;58439;51.046;13.692;2022-07-19T02:00:20;18.20;45.60
70820;DHT22;58439;51.046;13.692;2022-07-19T02:02:49;18.20;45.80
70820;DHT22;58439;51.046;13.692;2022-07-19T02:05:20;18.20;46.00
70820;DHT22;58439;51.046;13.692;2022-07-19T02:07:48;18.10;46.00
70820;DHT22;58439;51.046;13.692;2022-07-19T02:10:16;18.10;46.30
70820;DHT22;58439;51.046;13.692;2022-07-19T02:12:45;18.10;46.30
70820;DHT22;58439;51.046;13.692;2022-07-19T02:15:12;18.10;46.70
70820;DHT22;58439;51.046;13.692;2022-07-19T02:17:42;18.00;46.90
70820;DHT22;58439;51.046;13.692;2022-07-19T02:20:10;18.00;47.10
70820;DHT22;58439;51.046;13.692;2022-07-19T02:22:40;18.00;47.30
70820;DHT22;58439;51.046;13.692;2022-07-19T02:25:08;18.00;47.40
70820;DHT22;58439;51.046;13.692;2022-07-19T02:27:38;18.00;47.40
70820;DHT22;58439;51.046;13.692;2022-07-19T02:30:08;18.00;47.50
70820;DHT22;58439;51.046;13.692;2022-07-19T02:32:41;17.90;47.60
70820;DHT22;58439;51.046;13.692;2022-07-19T02:35:14;17.90;47.90
70820;DHT22;58439;51.046;13.692;2022-07-19T02:37:42;17.90;48.20
70820;DHT22;58439;51.046;13.692;2022-07-19T02:40:09;17.80;48.10
70820;DHT22;58439;51.046;13.692;2022-07-19T02:42:37;17.80;48.20
70820;DHT22;58439;51.046;13.692;2022-07-19T02:45:05;17.80;48.40
70820;DHT22;58439;51.046;13.692;2022-07-19T02:47:33;17.70;48.10
70820;DHT22;58439;51.046;13.692;2022-07-19T02:50:00;17.70;48.00
70820;DHT22;58439;51.046;13.692;2022-07-19T02:52:29;17.70;48.30
70820;DHT22;58439;51.046;13.692;2022-07-19T02:55:06;17.70;48.60
70820;DHT22;58439;51.046;13.692;2022-07-19T02:57:34;17.70;48.80
70820;DHT22;58439;51.046;13.692;2022-07-19T03:00:08;17.70;48.80
70820;DHT22;58439;51.046;13.692;2022-07-19T03:02:36;17.60;48.80
70820;DHT22;58439;51.046;13.692;2022-07-19T03:05:11;17.70;48.50
70820;DHT22;58439;51.046;13.692;2022-07-19T03:07:39;17.60;48.90
70820;DHT22;58439;51.046;13.692;2022-07-19T03:10:09;17.60;49.30
70820;DHT22;58439;51.046;13.692;2022-07-19T03:12:37;17.60;49.50
70820;DHT22;58439;51.046;13.692;2022-07-19T03:15:10;17.60;49.50
70820;DHT22;58439;51.046;13.692;2022-07-19T03:17:38;17.60;49.70
70820;DHT22;58439;51.046;13.692;2022-07-19T03:20:07;17.60;49.80
70820;DHT22;58439;51.046;13.692;2022-07-19T03:22:41;17.50;50.00
70820;DHT22;58439;51.046;13.692;2022-07-19T03:25:18;17.50;50.20
70820;DHT22;58439;51.046;13.692;2022-07-19T03:27:46;17.50;50.20
70820;DHT22;58439;51.046;13.692;2022-07-19T03:30:19;17.50;50.20
70820;DHT22;58439;51.046;13.692;2022-07-19T03:32:50;17.50;50.20
70820;DHT22;58439;51.046;13.692;2022-07-19T03:35:23;17.50;50.20
70820;DHT22;58439;51.046;13.692;2022-07-19T03:37:54;17.50;50.20
70820;DHT22;58439;51.046;13.692;2022-07-19T03:40:29;17.40;50.20
70820;DHT22;58439;51.046;13.692;2022-07-19T03:43:03;17.40;50.10
70820;DHT22;58439;51.046;13.692;2022-07-19T03:45:36;17.40;50.20
70820;DHT22;58439;51.046;13.692;2022-07-19T03:48:04;17.40;50.10
70820;DHT22;58439;51.046;13.692;2022-07-19T03:50:43;17.50;50.20
70820;DHT22;58439;51.046;13.692;2022-07-19T03:53:18;17.50;50.20
70820;DHT22;58439;51.046;13.692;2022-07-19T03:55:48;17.50;49.90
70820;DHT22;58439;51.046;13.692;2022-07-19T03:58:21;17.50;49.80
70820;DHT22;58439;51.046;13.692;2022-07-19T04:00:51;17.60;49.80
70820;DHT22;58439;51.046;13.692;2022-07-19T04:03:37;17.60;49.40
70820;DHT22;58439;51.046;13.692;2022-07-19T04:06:14;17.70;49.00
70820;DHT22;58439;51.046;13.692;2022-07-19T04:08:44;17.70;48.80
70820;DHT22;58439;51.046;13.692;2022-07-19T04:11:15;17.80;48.70
70820;DHT22;58439;51.046;13.692;2022-07-19T04:13:46;17.90;48.70
70820;DHT22;58439;51.046;13.692;2022-07-19T04:16:16;17.90;48.70
70820;DHT22;58439;51.046;13.692;2022-07-19T04:18:46;17.90;48.60
70820;DHT22;58439;51.046;13.692;2022-07-19T04:21:17;18.00;48.40
70820;DHT22;58439;51.046;13.692;2022-07-19T04:23:44;18.10;48.20
70820;DHT22;58439;51.046;13.692;2022-07-19T04:26:18;18.20;48.20
70820;DHT22;58439;51.046;13.692;2022-07-19T04:28:47;18.30;47.90
70820;DHT22;58439;51.046;13.692;2022-07-19T04:31:22;18.30;47.60
70820;DHT22;58439;51.046;13.692;2022-07-19T04:33:52;18.40;47.50
70820;DHT22;58439;51.046;13.692;2022-07-19T04:36:36;18.60;47.00
70820;DHT22;58439;51.046;13.692;2022-07-19T04:39:22;18.70;46.50
70820;DHT22;58439;51.046;13.692;2022-07-19T04:41:52;18.80;45.90
70820;DHT22;58439;51.046;13.692;2022-07-19T04:44:21;19.00;45.40
70820;DHT22;58439;51.046;13.692;2022-07-19T04:46:49;19.00;44.90
70820;DHT22;58439;51.046;13.692;2022-07-19T04:49:19;19.10;44.70
70820;DHT22;58439;51.046;13.692;2022-07-19T04:51:50;19.20;44.30
70820;DHT22;58439;51.046;13.692;2022-07-19T04:54:23;19.30;44.10
70820;DHT22;58439;51.046;13.692;2022-07-19T04:56:56;19.30;43.80
70820;DHT22;58439;51.046;13.692;2022-07-19T04:59:29;19.50;43.40
70820;DHT22;58439;51.046;13.692;2022-07-19T05:02:15;19.60;43.20
70820;DHT22;58439;51.046;13.692;2022-07-19T05:04:47;19.70;42.50
70820;DHT22;58439;51.046;13.692;2022-07-19T05:07:27;19.70;42.10
70820;DHT22;58439;51.046;13.692;2022-07-19T05:09:54;19.70;41.90
70820;DHT22;58439;51.046;13.692;2022-07-19T05:12:27;19.80;41.90
70820;DHT22;58439;51.046;13.692;2022-07-19T05:14:55;19.90;41.50
70820;DHT22;58439;51.046;13.692;2022-07-19T05:17:22;20.00;41.30
70820;DHT22;58439;51.046;13.692;2022-07-19T05:19:57;20.10;41.00
70820;DHT22;58439;51.046;13.692;2022-07-19T05:22:24;20.20;40.90
70820;DHT22;58439;51.046;13.692;2022-07-19T05:24:52;20.30;40.30
70820;DHT22;58439;51.046;13.692;2022-07-19T05:27:20;20.40;40.20
70820;DHT22;58439;51.046;13.692;2022-07-19T05:29:48;20.40;40.00
70820;DHT22;58439;51.046;13.692;2022-07-19T05:32:16;20.60;39.70
70820;DHT22;58439;51.046;13.692;2022-07-19T05:34:46;20.70;39.40
70820;DHT22;58439;51.046;13.692;2022-07-19T05:37:15;20.80;39.00
70820;DHT22;58439;51.046;13.692;2022-07-19T05:39:43;20.90;38.70
70820;DHT22;58439;51.046;13.692;2022-07-19T05:42:11;21.00;38.40
70820;DHT22;58439;51.046;13.692;2022-07-19T05:44:39;21.20;38.10
70820;DHT22;58439;51.046;13.692;2022-07-19T05:47:09;21.30;37.80
70820;DHT22;58439;51.046;13.692;2022-07-19T05:49:36;21.30;37.50
70820;DHT22;58439;51.046;13.692;2022-07-19T05:52:04;21.50;37.40
70820;DHT22;58439;51.046;13.692;2022-07-19T05:54:31;21.60;36.90
70820;DHT22;58439;51.046;13.692;2022-07-19T05:56:59;21.70;36.70
70820;DHT22;58439;51.046;13.692;2022-07-19T05:59:26;21.80;36.40
70820;DHT22;58439;51.046;13.692;2022-07-19T06:01:53;21.90;36.20
70820;DHT22;58439;51.046;13.692;2022-07-19T06:04:29;22.00;36.00
70820;DHT22;58439;51.046;13.692;2022-07-19T06:06:57;22.00;35.60
70820;DHT22;58439;51.046;13.692;2022-07-19T06:09:24;22.10;35.50
70820;DHT22;58439;51.046;13.692;2022-07-19T06:11:51;22.20;35.30
70820;DHT22;58439;51.046;13.692;2022-07-19T06:14:19;22.30;35.00
70820;DHT22;58439;51.046;13.692;2022-07-19T06:16:51;22.40;34.80
70820;DHT22;58439;51.046;13.692;2022-07-19T06:19:20;22.50;34.40
70820;DHT22;58439;51.046;13.692;2022-07-19T06:21:47;22.60;34.30
70820;DHT22;58439;51.046;13.692;2022-07-19T06:24:14;22.70;34.20
70820;DHT22;58439;51.046;13.692;2022-07-19T06:26:41;22.80;34.10
70820;DHT22;58439;51.046;13.692;2022-07-19T06:29:09;22.90;33.70
70820;DHT22;58439;51.046;13.692;2022-07-19T06:31:43;23.00;33.50
70820;DHT22;58439;51.046;13.692;2022-07-19T06:34:15;23.10;33.20
70820;DHT22;58439;51.046;13.692;2022-07-19T06:36:42;23.20;32.80
70820;DHT22;58439;51.046;13.692;2022-07-19T06:39:09;23.30;32.90
70820;DHT22;58439;51.046;13.692;2022-07-19T06:41:36;23.40;32.80
70820;DHT22;58439;51.046;13.692;2022-07-19T06:44:04;23.50;32.60
70820;DHT22;58439;51.046;13.692;2022-07-19T06:46:32;23.70;32.30
70820;DHT22;58439;51.046;13.692;2022-07-19T06:48:59;23.90;31.80
70820;DHT22;58439;51.046;13.692;2022-07-19T06:51:26;23.90;31.60
70820;DHT22;58439;51.046;13.692;2022-07-19T06:53:53;24.00;31.30
70820;DHT22;58439;51.046;13.692;2022-07-19T06:56:21;24.10;31.00
70820;DHT22;58439;51.046;13.692;2022-07-19T06:58:48;24.20;30.90
70820;DHT22;58439;51.046;13.692;2022-07-19T07:01:15;24.30;30.50
70820;DHT22;58439;51.046;13.692;2022-07-19T07:03:44;24.50;30.40
70820;DHT22;58439;51.046;13.692;2022-07-19T07:06:12;24.50;30.00
70820;DHT22;58439;51.046;13.692;2022-07-19T07:08:39;24.60;29.70
70820;DHT22;58439;51.046;13.692;2022-07-19T07:11:06;24.70;29.70
70820;DHT22;58439;51.046;13.692;2022-07-19T07:13:36;24.90;29.50
70820;DHT22;58439;51.046;13.692;2022-07-19T07:16:03;25.00;29.10
70820;DHT22;58439;51.046;13.692;2022-07-19T07:18:30;25.10;28.80
70820;DHT22;58439;51.046;13.692;2022-07-19T07:20:58;25.20;28.40
70820;DHT22;58439;51.046;13.692;2022-07-19T07:23:25;25.30;28.20
70820;DHT22;58439;51.046;13.692;2022-07-19T07:25:53;25.40;28.20
70820;DHT22;58439;51.046;13.692;2022-07-19T07:28:20;25.60;28.20
70820;DHT22;58439;51.046;13.692;2022-07-19T07:30:52;25.80;28.10
70820;DHT22;58439;51.046;13.692;2022-07-19T07:33:20;25.90;28.00
70820;DHT22;58439;51.046;13.692;2022-07-19T07:35:47;26.10;27.80
70820;DHT22;58439;51.046;13.692;2022-07-19T07:38:14;26.20;27.60
70820;DHT22;58439;51.046;13.692;2022-07-19T07:40:43;26.30;27.50
70820;DHT22;58439;51.046;13.692;2022-07-19T07:43:10;26.40;27.30
70820;DHT22;58439;51.046;13.692;2022-07-19T07:45:37;26.60;27.10
70820;DHT22;58439;51.046;13.692;2022-07-19T07:48:04;26.60;27.00
70820;DHT22;58439;51.046;13.692;2022-07-19T07:50:31;26.70;26.90
70820;DHT22;58439;51.046;13.692;2022-07-19T07:52:58;26.80;26.70
70820;DHT22;58439;51.046;13.692;2022-07-19T07:55:25;26.90;26.50
70820;DHT22;58439;51.046;13.692;2022-07-19T07:57:56;27.10;26.30
70820;DHT22;58439;51.046;13.692;2022-07-19T08:00:23;27.20;26.20
70820;DHT22;58439;51.046;13.692;2022-07-19T08:02:51;27.30;25.80
70820;DHT22;58439;51.046;13.692;2022-07-19T08:05:21;27.40;25.80
70820;DHT22;58439;51.046;13.692;2022-07-19T08:07:49;27.50;25.70
70820;DHT22;58439;51.046;13.692;2022-07-19T08:10:24;27.60;25.50
70820;DHT22;58439;51.046;13.692;2022-07-19T08:12:53;27.80;25.50
70820;DHT22;58439;51.046;13.692;2022-07-19T08:15:21;27.90;25.20
70820;DHT22;58439;51.046;13.692;2022-07-19T08:17:48;28.00;25.00
70820;DHT22;58439;51.046;13.692;2022-07-19T08:20:16;28.00;24.90
70820;DHT22;58439;51.046;13.692;2022-07-19T08:22:45;28.20;25.80
70820;DHT22;58439;51.046;13.692;2022-07-19T08:25:12;28.30;24.60
70820;DHT22;58439;51.046;13.692;2022-07-19T08:27:44;28.50;24.50
70820;DHT22;58439;51.046;13.692;2022-07-19T08:30:12;28.60;24.10
70820;DHT22;58439;51.046;13.692;2022-07-19T08:32:41;28.80;23.90
70820;DHT22;58439;51.046;13.692;2022-07-19T08:35:09;28.90;23.70
70820;DHT22;58439;51.046;13.692;2022-07-19T08:37:42;29.10;23.80
70820;DHT22;58439;51.046;13.692;2022-07-19T08:40:10;29.10;23.10
70820;DHT22;58439;51.046;13.692;2022-07-19T08:42:38;29.20;22.90
70820;DHT22;58439;51.046;13.692;2022-07-19T08:45:10;29.30;22.70
70820;DHT22;58439;51.046;13.692;2022-07-19T08:47:38;29.40;22.60
70820;DHT22;58439;51.046;13.692;2022-07-19T08:50:08;29.50;22.20
70820;DHT22;58439;51.046;13.692;2022-07-19T08:52:36;29.50;22.10
70820;DHT22;58439;51.046;13.692;2022-07-19T08:55:05;29.70;21.80
70820;DHT22;58439;51.046;13.692;2022-07-19T08:57:33;29.80;21.70
70820;DHT22;58439;51.046;13.692;2022-07-19T09:00:19;29.90;21.40
70820;DHT22;58439;51.046;13.692;2022-07-19T09:02:57;30.10;21.20
70820;DHT22;58439;51.046;13.692;2022-07-19T09:05:34;30.20;20.90
70820;DHT22;58439;51.046;13.692;2022-07-19T09:08:16;30.40;20.60
70820;DHT22;58439;51.046;13.692;2022-07-19T09:10:49;30.40;20.10
70820;DHT22;58439;51.046;13.692;2022-07-19T09:13:36;30.40;19.90
70820;DHT22;58439;51.046;13.692;2022-07-19T09:16:04;30.50;19.60
70820;DHT22;58439;51.046;13.692;2022-07-19T09:18:34;30.40;19.50
70820;DHT22;58439;51.046;13.692;2022-07-19T09:21:04;30.50;19.60
70820;DHT22;58439;51.046;13.692;2022-07-19T09:23:33;30.50;19.20
70820;DHT22;58439;51.046;13.692;2022-07-19T09:26:03;30.70;19.10
70820;DHT22;58439;51.046;13.692;2022-07-19T09:28:35;30.80;18.70
70820;DHT22;58439;51.046;13.692;2022-07-19T09:31:04;30.80;18.50
70820;DHT22;58439;51.046;13.692;2022-07-19T09:33:35;31.00;18.20
70820;DHT22;58439;51.046;13.692;2022-07-19T09:36:04;31.00;18.00
70820;DHT22;58439;51.046;13.692;2022-07-19T09:38:40;31.10;18.00
70820;DHT22;58439;51.046;13.692;2022-07-19T09:41:16;31.30;18.00
70820;DHT22;58439;51.046;13.692;2022-07-19T09:44:01;31.40;17.80
70820;DHT22;58439;51.046;13.692;2022-07-19T09:46:39;31.50;17.80
70820;DHT22;58439;51.046;13.692;2022-07-19T09:49:15;31.60;17.70
70820;DHT22;58439;51.046;13.692;2022-07-19T09:51:47;31.70;17.40
70820;DHT22;58439;51.046;13.692;2022-07-19T09:54:17;31.80;17.40
70820;DHT22;58439;51.046;13.692;2022-07-19T09:56:49;31.80;17.10
70820;DHT22;58439;51.046;13.692;2022-07-19T09:59:18;31.90;16.70
70820;DHT22;58439;51.046;13.692;2022-07-19T10:01:48;32.00;16.50
70820;DHT22;58439;51.046;13.692;2022-07-19T10:04:22;32.00;16.40
70820;DHT22;58439;51.046;13.692;2022-07-19T10:06:52;32.00;16.40
70820;DHT22;58439;51.046;13.692;2022-07-19T10:09:23;32.10;16.50
70820;DHT22;58439;51.046;13.692;2022-07-19T10:11:56;32.20;16.40
70820;DHT22;58439;51.046;13.692;2022-07-19T10:14:23;32.30;16.50
70820;DHT22;58439;51.046;13.692;2022-07-19T10:22:33;32.70;16.10
70820;DHT22;58439;51.046;13.692;2022-07-19T10:27:47;32.50;15.80
70820;DHT22;58439;51.046;13.692;2022-07-19T10:30:20;32.50;15.80
70820;DHT22;58439;51.046;13.692;2022-07-19T10:32:52;32.60;15.90
70820;DHT22;58439;51.046;13.692;2022-07-19T10:38:07;32.70;15.40
70820;DHT22;58439;51.046;13.692;2022-07-19T10:40:46;32.90;15.40
70820;DHT22;58439;51.046;13.692;2022-07-19T10:43:19;33.00;15.50
70820;DHT22;58439;51.046;13.692;2022-07-19T10:48:37;33.30;15.50
70820;DHT22;58439;51.046;13.692;2022-07-19T10:51:31;33.50;15.50
70820;DHT22;58439;51.046;13.692;2022-07-19T10:54:06;33.50;14.80
70820;DHT22;58439;51.046;13.692;2022-07-19T10:56:42;33.50;14.90
70820;DHT22;58439;51.046;13.692;2022-07-19T10:59:32;33.60;15.10
70820;DHT22;58439;51.046;13.692;2022-07-19T11:02:02;33.70;14.70
70820;DHT22;58439;51.046;13.692;2022-07-19T11:04:50;33.80;14.60
70820;DHT22;58439;51.046;13.692;2022-07-19T11:07:22;33.90;14.50
70820;DHT22;58439;51.046;13.692;2022-07-19T11:09:53;34.00;14.40
70820;DHT22;58439;51.046;13.692;2022-07-19T11:12:29;34.20;14.40
70820;DHT22;58439;51.046;13.692;2022-07-19T11:15:05;34.70;14.10
70820;DHT22;58439;51.046;13.692;2022-07-19T11:17:50;35.40;13.50
70820;DHT22;58439;51.046;13.692;2022-07-19T11:20:18;36.10;12.80
70820;DHT22;58439;51.046;13.692;2022-07-19T11:22:49;36.60;12.50
70820;DHT22;58439;51.046;13.692;2022-07-19T11:25:28;37.10;12.20
70820;DHT22;58439;51.046;13.692;2022-07-19T11:27:58;37.50;12.00
70820;DHT22;58439;51.046;13.692;2022-07-19T11:30:28;38.10;11.70
70820;DHT22;58439;51.046;13.692;2022-07-19T11:33:00;38.70;11.40
70820;DHT22;58439;51.046;13.692;2022-07-19T11:35:30;39.20;10.60
70820;DHT22;58439;51.046;13.692;2022-07-19T11:37:59;39.30;10.60
70820;DHT22;58439;51.046;13.692;2022-07-19T11:40:35;39.60;9.90
70820;DHT22;58439;51.046;13.692;2022-07-19T11:43:05;39.60;10.00
70820;DHT22;58439;51.046;13.692;2022-07-19T11:45:47;39.90;10.40
70820;DHT22;58439;51.046;13.692;2022-07-19T11:48:27;40.30;9.70
70820;DHT22;58439;51.046;13.692;2022-07-19T11:51:08;40.40;9.70
70820;DHT22;58439;51.046;13.692;2022-07-19T11:53:38;40.70;9.60
70820;DHT22;58439;51.046;13.692;2022-07-19T11:56:17;40.90;9.30
70820;DHT22;58439;51.046;13.692;2022-07-19T11:58:46;41.00;9.50
70820;DHT22;58439;51.046;13.692;2022-07-19T12:01:26;41.20;9.20
70820;DHT22;58439;51.046;13.692;2022-07-19T12:03:57;41.40;9.10
70820;DHT22;58439;51.046;13.692;2022-07-19T12:06:43;41.60;8.90
70820;DHT22;58439;51.046;13.692;2022-07-19T12:09:15;41.80;8.70
70820;DHT22;58439;51.046;13.692;2022-07-19T12:11:54;41.70;8.50
70820;DHT22;58439;51.046;13.692;2022-07-19T12:14:28;41.90;8.70
70820;DHT22;58439;51.046;13.692;2022-07-19T12:17:15;42.20;8.60
70820;DHT22;58439;51.046;13.692;2022-07-19T12:19:52;42.20;8.40
70820;DHT22;58439;51.046;13.692;2022-07-19T12:22:55;42.20;8.10
70820;DHT22;58439;51.046;13.692;2022-07-19T12:25:38;42.10;8.20
70820;DHT22;58439;51.046;13.692;2022-07-19T12:28:06;42.30;8.30
70820;DHT22;58439;51.046;13.692;2022-07-19T12:30:33;42.60;8.20
70820;DHT22;58439;51.046;13.692;2022-07-19T12:33:12;43.00;8.10
70820;DHT22;58439;51.046;13.692;2022-07-19T12:35:46;43.30;7.80
70820;DHT22;58439;51.046;13.692;2022-07-19T12:38:15;43.30;7.70
70820;DHT22;58439;51.046;13.692;2022-07-19T12:40:43;43.50;7.70
70820;DHT22;58439;51.046;13.692;2022-07-19T12:43:12;43.50;7.40
70820;DHT22;58439;51.046;13.692;2022-07-19T12:45:42;43.40;7.30
70820;DHT22;58439;51.046;13.692;2022-07-19T12:48:14;43.30;7.40
70820;DHT22;58439;51.046;13.692;2022-07-19T12:50:43;43.30;7.40
70820;DHT22;58439;51.046;13.692;2022-07-19T12:53:14;43.20;7.30
70820;DHT22;58439;51.046;13.692;2022-07-19T12:55:43;43.30;7.20
70820;DHT22;58439;51.046;13.692;2022-07-19T12:58:12;43.40;7.20
70820;DHT22;58439;51.046;13.692;2022-07-19T13:01:05;43.70;7.30
70820;DHT22;58439;51.046;13.692;2022-07-19T13:03:35;43.90;7.10
70820;DHT22;58439;51.046;13.692;2022-07-19T13:06:03;43.70;6.70
70820;DHT22;58439;51.046;13.692;2022-07-19T13:08:32;43.80;6.80
70820;DHT22;58439;51.046;13.692;2022-07-19T13:10:59;43.70;6.70
70820;DHT22;58439;51.046;13.692;2022-07-19T13:13:26;43.80;6.90
70820;DHT22;58439;51.046;13.692;2022-07-19T13:15:55;44.10;6.80
70820;DHT22;58439;51.046;13.692;2022-07-19T13:18:23;44.10;6.80
70820;DHT22;58439;51.046;13.692;2022-07-19T13:20:50;44.10;6.80
70820;DHT22;58439;51.046;13.692;2022-07-19T13:23:17;44.20;6.70
70820;DHT22;58439;51.046;13.692;2022-07-19T13:25:44;44.30;6.60
70820;DHT22;58439;51.046;13.692;2022-07-19T13:28:12;44.70;6.80
70820;DHT22;58439;51.046;13.692;2022-07-19T13:30:40;45.00;6.40
70820;DHT22;58439;51.046;13.692;2022-07-19T13:33:09;44.90;6.30
70820;DHT22;58439;51.046;13.692;2022-07-19T13:35:37;44.80;6.30
70820;DHT22;58439;51.046;13.692;2022-07-19T13:38:06;45.00;6.20
70820;DHT22;58439;51.046;13.692;2022-07-19T13:40:33;45.10;6.10
70820;DHT22;58439;51.046;13.692;2022-07-19T13:43:00;44.90;6.20
70820;DHT22;58439;51.046;13.692;2022-07-19T13:45:28;44.90;6.20
70820;DHT22;58439;51.046;13.692;2022-07-19T13:47:55;45.10;6.10
70820;DHT22;58439;51.046;13.692;2022-07-19T13:50:34;45.20;6.00
70820;DHT22;58439;51.046;13.692;2022-07-19T13:53:03;45.20;5.80
70820;DHT22;58439;51.046;13.692;2022-07-19T13:55:30;45.10;6.10
70820;DHT22;58439;51.046;13.692;2022-07-19T13:57:59;45.20;6.10
70820;DHT22;58439;51.046;13.692;2022-07-19T14:00:26;45.40;6.10
70820;DHT22;58439;51.046;13.692;2022-07-19T14:02:54;45.60;6.10
70820;DHT22;58439;51.046;13.692;2022-07-19T14:05:22;45.60;6.10
70820;DHT22;58439;51.046;13.692;2022-07-19T14:07:49;45.70;6.00
70820;DHT22;58439;51.046;13.692;2022-07-19T14:10:16;45.70;5.80
70820;DHT22;58439;51.046;13.692;2022-07-19T14:12:43;45.60;5.50
70820;DHT22;58439;51.046;13.692;2022-07-19T14:15:11;45.50;5.50
70820;DHT22;58439;51.046;13.692;2022-07-19T14:17:38;45.30;5.70
70820;DHT22;58439;51.046;13.692;2022-07-19T14:20:06;45.40;5.90
70820;DHT22;58439;51.046;13.692;2022-07-19T14:22:34;45.40;5.80
70820;DHT22;58439;51.046;13.692;2022-07-19T14:25:01;45.50;5.70
70820;DHT22;58439;51.046;13.692;2022-07-19T14:27:29;45.40;5.70
70820;DHT22;58439;51.046;13.692;2022-07-19T14:29:57;45.40;5.70
70820;DHT22;58439;51.046;13.692;2022-07-19T14:32:24;45.10;6.60
70820;DHT22;58439;51.046;13.692;2022-07-19T14:34:52;45.10;5.50
70820;DHT22;58439;51.046;13.692;2022-07-19T14:37:19;45.30;5.50
70820;DHT22;58439;51.046;13.692;2022-07-19T14:39:54;45.50;5.60
70820;DHT22;58439;51.046;13.692;2022-07-19T14:42:22;45.60;5.70
70820;DHT22;58439;51.046;13.692;2022-07-19T14:44:49;45.70;5.40
70820;DHT22;58439;51.046;13.692;2022-07-19T14:47:17;45.80;5.50
70820;DHT22;58439;51.046;13.692;2022-07-19T14:49:44;45.70;5.50
70820;DHT22;58439;51.046;13.692;2022-07-19T14:52:12;45.80;5.60
70820;DHT22;58439;51.046;13.692;2022-07-19T14:54:40;45.80;5.30
70820;DHT22;58439;51.046;13.692;2022-07-19T14:57:07;45.80;5.40
70820;DHT22;58439;51.046;13.692;2022-07-19T14:59:35;45.70;5.40
70820;DHT22;58439;51.046;13.692;2022-07-19T15:02:02;45.90;5.30
70820;DHT22;58439;51.046;13.692;2022-07-19T15:04:30;46.00;5.30
70820;DHT22;58439;51.046;13.692;2022-07-19T15:06:57;46.00;5.40
70820;DHT22;58439;51.046;13.692;2022-07-19T15:09:24;45.90;5.30
70820;DHT22;58439;51.046;13.692;2022-07-19T15:11:52;46.00;5.30
70820;DHT22;58439;51.046;13.692;2022-07-19T15:14:20;46.00;5.30
70820;DHT22;58439;51.046;13.692;2022-07-19T15:16:47;45.80;5.30
70820;DHT22;58439;51.046;13.692;2022-07-19T15:19:14;45.90;5.30
70820;DHT22;58439;51.046;13.692;2022-07-19T15:21:42;46.00;5.00
70820;DHT22;58439;51.046;13.692;2022-07-19T15:24:09;45.80;5.30
70820;DHT22;58439;51.046;13.692;2022-07-19T15:26:36;45.60;5.40
70820;DHT22;58439;51.046;13.692;2022-07-19T15:29:03;45.60;5.40
70820;DHT22;58439;51.046;13.692;2022-07-19T15:31:30;45.60;5.30
70820;DHT22;58439;51.046;13.692;2022-07-19T15:34:01;45.60;5.20
70820;DHT22;58439;51.046;13.692;2022-07-19T15:36:31;45.60;5.00
70820;DHT22;58439;51.046;13.692;2022-07-19T15:38:58;45.70;6.10
70820;DHT22;58439;51.046;13.692;2022-07-19T15:41:26;45.90;5.10
70820;DHT22;58439;51.046;13.692;2022-07-19T15:43:58;45.90;5.10
70820;DHT22;58439;51.046;13.692;2022-07-19T15:46:30;46.00;5.20
70820;DHT22;58439;51.046;13.692;2022-07-19T15:49:00;46.00;5.00
70820;DHT22;58439;51.046;13.692;2022-07-19T15:51:31;45.90;5.20
70820;DHT22;58439;51.046;13.692;2022-07-19T15:53:59;45.80;5.00